Matagorda, Texas
Current Conditions -  °F | °C
As of 9:53 AM on Saturday 22 Nov 2014 (Local Time) from KPSX Reporting Station
Overcast Overcast  
Wind Chill: 70°   Ceiling: 3500
Heat Index: 70°   Visibility: 10mi
Dew Point: 66°   Wind: 13mph
Humidity: 87%   Direction: 120°ESE
Pressure: 30.02"   Gusts: NA
Location:  28.69°N, 95.97°W
Report Text: KPSX 221553Z AUTO 12011KT 10SM BKN035 OVC080 21/19 A3002 RMK AO2 LTG DSNT S AND SW SLP165 T02110189
Loading
Personal Weather Stations






























Interactive Weather Map New forecast layout! Learn more

10-Day Weather Forecast

Advertisements
Track Severe Weather on mobile